createdAt,value
2017-11-27T00:01:54.137Z,99529.52
2017-11-27T00:04:20.600Z,99528.91
2017-11-27T00:06:46.981Z,99536.33
2017-11-27T00:09:13.343Z,99536.18
2017-11-27T00:11:39.716Z,99535.04
2017-11-27T00:14:06.165Z,99538.25
2017-11-27T00:16:32.572Z,99543.16
2017-11-27T00:18:58.941Z,99539.60
2017-11-27T00:21:25.402Z,99539.23
2017-11-27T00:23:51.778Z,99533.63
2017-11-27T00:26:18.209Z,99538.79
2017-11-27T00:28:44.635Z,99540.59
2017-11-27T00:31:11.011Z,99539.65
2017-11-27T00:33:37.394Z,99540.41
2017-11-27T00:36:03.782Z,99534.44
2017-11-27T00:38:30.134Z,99533.98
2017-11-27T00:40:56.484Z,99532.27
2017-11-27T00:43:22.866Z,99537.43
2017-11-27T00:45:49.249Z,99531.98
2017-11-27T00:48:15.694Z,99533.78
2017-11-27T00:50:42.126Z,99533.91
2017-11-27T00:53:08.477Z,99535.62
2017-11-27T00:55:34.886Z,99534.36
2017-11-27T00:58:01.368Z,99530.23
2017-11-27T01:00:27.782Z,99525.41
2017-11-27T01:02:54.213Z,99530.91
2017-11-27T01:05:20.715Z,99535.44
2017-11-27T01:07:47.091Z,99531.41
2017-11-27T01:10:13.466Z,99529.23
2017-11-27T01:12:39.910Z,99520.77
2017-11-27T01:15:06.278Z,99508.58
2017-11-27T01:17:32.650Z,99510.81
2017-11-27T01:19:59.077Z,99512.13
2017-11-27T01:22:25.427Z,99509.24
2017-11-27T01:24:51.772Z,99509.49
2017-11-27T01:27:18.178Z,99502.12
2017-11-27T01:29:44.522Z,99500.50
2017-11-27T01:32:10.953Z,99497.33
2017-11-27T01:34:37.365Z,99490.45
2017-11-27T01:37:03.774Z,99492.31
2017-11-27T01:39:30.190Z,99491.12
2017-11-27T01:41:56.617Z,99491.37
2017-11-27T01:44:22.981Z,99485.87
2017-11-27T01:46:49.397Z,99487.98
2017-11-27T01:49:15.961Z,99482.66
2017-11-27T01:51:42.355Z,99483.78
2017-11-27T01:54:08.785Z,99485.73
2017-11-27T01:56:35.304Z,99486.19
2017-11-27T01:59:01.686Z,99478.34
2017-11-27T02:01:28.062Z,99478.20
2017-11-27T02:03:54.529Z,99476.07
2017-11-27T02:06:20.933Z,99479.27
2017-11-27T02:08:47.297Z,99473.20
2017-11-27T02:11:13.730Z,99468.94
2017-11-27T02:13:40.070Z,99474.33
2017-11-27T02:16:06.486Z,99460.13
2017-11-27T02:18:32.901Z,99467.56
2017-11-27T02:20:59.432Z,99471.36
2017-11-27T02:23:25.881Z,99472.02
2017-11-27T02:25:52.298Z,99474.95
2017-11-27T02:28:18.645Z,99464.41
2017-11-27T02:30:44.999Z,99462.20
2017-11-27T02:33:11.474Z,99461.70
2017-11-27T02:35:37.826Z,99461.23
2017-11-27T02:38:04.181Z,99462.51
2017-11-27T02:40:30.798Z,99460.44
2017-11-27T02:42:57.230Z,99466.98
2017-11-27T02:45:23.693Z,99468.83
2017-11-27T02:47:50.973Z,99475.77
2017-11-27T02:50:17.335Z,99469.27
2017-11-27T02:52:43.755Z,99466.61
2017-11-27T02:55:10.202Z,99464.77
2017-11-27T02:57:36.577Z,99464.56
2017-11-27T03:00:03.082Z,99464.53
2017-11-27T03:02:29.509Z,99464.59
2017-11-27T03:04:55.926Z,99466.67
2017-11-27T03:07:22.433Z,99460.28
2017-11-27T03:09:48.835Z,99462.75
2017-11-27T03:12:15.218Z,99464.73
2017-11-27T03:14:41.613Z,99456.44
2017-11-27T03:17:08.115Z,99452.98
2017-11-27T03:19:34.460Z,99450.05
2017-11-27T03:22:00.845Z,99451.42
2017-11-27T03:24:27.239Z,99449.12
2017-11-27T03:26:53.624Z,99453.38
2017-11-27T03:29:20.034Z,99447.33
2017-11-27T03:31:46.613Z,99449.41
2017-11-27T03:34:13.045Z,99450.31
2017-11-27T03:36:39.446Z,99445.18
2017-11-27T03:39:05.835Z,99449.83
2017-11-27T03:41:32.189Z,99450.95
2017-11-27T03:43:58.542Z,99446.30
2017-11-27T03:46:25.010Z,99444.19
2017-11-27T03:48:51.366Z,99441.53
2017-11-27T03:51:17.746Z,99435.37
2017-11-27T03:53:44.129Z,99440.75
2017-11-27T03:56:10.546Z,99441.08
2017-11-27T03:58:36.920Z,99442.30
2017-11-27T04:01:03.317Z,99446.38
2017-11-27T04:03:29.660Z,99446.61
2017-11-27T04:05:56.039Z,99441.11
2017-11-27T04:08:22.551Z,99446.06
2017-11-27T04:10:48.938Z,99439.67
2017-11-27T04:13:15.353Z,99444.94
2017-11-27T04:15:41.830Z,99443.25
2017-11-27T04:18:08.225Z,99445.91
2017-11-27T04:20:34.786Z,99447.50
2017-11-27T04:23:01.217Z,99449.67
2017-11-27T04:25:27.593Z,99449.61
2017-11-27T04:27:53.997Z,99446.06
2017-11-27T04:30:20.404Z,99445.85
2017-11-27T04:32:46.832Z,99448.79
2017-11-27T04:35:13.256Z,99444.35
2017-11-27T04:37:39.715Z,99441.45
2017-11-27T04:40:06.109Z,99447.93
2017-11-27T04:42:32.540Z,99449.83
2017-11-27T04:44:59.027Z,99447.41
2017-11-27T04:47:25.397Z,99444.02
2017-11-27T04:49:51.792Z,99448.91
2017-11-27T04:52:18.194Z,99451.66
2017-11-27T04:54:44.630Z,99456.34
2017-11-27T04:57:11.045Z,99458.45
2017-11-27T04:59:37.474Z,99455.82
2017-11-27T05:02:03.888Z,99462.67
2017-11-27T05:04:30.259Z,99463.98
2017-11-27T05:06:56.693Z,99463.61
2017-11-27T05:09:23.122Z,99460.98
2017-11-27T05:11:49.502Z,99470.22
2017-11-27T05:14:15.909Z,99469.36
2017-11-27T05:16:42.325Z,99472.45
2017-11-27T05:19:08.757Z,99467.83
2017-11-27T05:21:35.306Z,99470.64
2017-11-27T05:24:01.674Z,99470.03
2017-11-27T05:26:28.046Z,99474.03
2017-11-27T05:28:54.474Z,99484.18
2017-11-27T05:31:20.829Z,99486.10
2017-11-27T05:33:47.182Z,99495.92
2017-11-27T05:36:13.792Z,99502.03
2017-11-27T05:38:40.146Z,99490.34
2017-11-27T05:41:06.534Z,99486.58
2017-11-27T05:43:33.000Z,99490.61
2017-11-27T05:45:59.394Z,99493.98
2017-11-27T05:48:25.775Z,99487.47
2017-11-27T05:50:52.190Z,99482.42
2017-11-27T05:53:18.773Z,99468.94
2017-11-27T05:55:45.133Z,99476.09
2017-11-27T05:58:11.566Z,99478.83
2017-11-27T06:00:37.953Z,99476.59
2017-11-27T06:03:04.323Z,99477.33
2017-11-27T06:05:30.726Z,99486.23
2017-11-27T06:07:57.220Z,99486.45
2017-11-27T06:10:23.762Z,99491.86
2017-11-27T06:12:50.233Z,99485.72
2017-11-27T06:15:16.610Z,99489.54
2017-11-27T06:17:43.327Z,99489.59
2017-11-27T06:20:09.733Z,99492.27
2017-11-27T06:22:36.091Z,99490.21
2017-11-27T06:25:02.493Z,99485.45
2017-11-27T06:27:28.994Z,99493.31
2017-11-27T06:29:55.558Z,99494.49
2017-11-27T06:32:22.002Z,99500.89
2017-11-27T06:34:48.433Z,99497.06
2017-11-27T06:37:14.818Z,99481.78
2017-11-27T06:39:41.160Z,99478.89
2017-11-27T06:42:07.556Z,99479.91
2017-11-27T06:44:33.902Z,99485.53
2017-11-27T06:47:00.248Z,99490.42
2017-11-27T06:49:26.662Z,99492.48
2017-11-27T06:51:53.166Z,99492.84
2017-11-27T06:54:19.538Z,99493.00
2017-11-27T06:56:46.041Z,99490.87
2017-11-27T06:59:12.405Z,99489.83
2017-11-27T07:01:38.857Z,99485.33
2017-11-27T07:04:05.644Z,99483.41
2017-11-27T07:06:32.442Z,99483.14
2017-11-27T07:08:58.872Z,99481.47
2017-11-27T07:11:25.266Z,99481.45
2017-11-27T07:13:51.610Z,99477.64
2017-11-27T07:16:18.000Z,99480.33
2017-11-27T07:18:44.503Z,99484.55
2017-11-27T07:21:10.874Z,99483.92
2017-11-27T07:23:37.241Z,99487.22
2017-11-27T07:26:03.803Z,99483.56
2017-11-27T07:28:30.165Z,99484.59
2017-11-27T07:30:56.514Z,99477.76
2017-11-27T07:33:23.191Z,99473.75
2017-11-27T07:35:49.560Z,99463.38
2017-11-27T07:38:21.783Z,99458.55
2017-11-27T07:40:51.009Z,99455.38
2017-11-27T07:43:18.373Z,99458.07
2017-11-27T07:45:44.753Z,99460.28
2017-11-27T07:48:11.226Z,99462.19
2017-11-27T07:50:37.665Z,99472.78
2017-11-27T07:53:04.013Z,99471.48
2017-11-27T07:55:30.382Z,99473.80
2017-11-27T07:57:56.935Z,99463.41
2017-11-27T08:00:23.318Z,99463.90
2017-11-27T08:02:49.757Z,99455.65
2017-11-27T08:05:16.141Z,99458.26
2017-11-27T08:07:42.900Z,99469.44
2017-11-27T08:10:09.305Z,99474.87
2017-11-27T08:12:35.651Z,99468.33
2017-11-27T08:15:02.111Z,99467.45
2017-11-27T08:17:28.554Z,99458.38
2017-11-27T08:19:54.910Z,99446.79
2017-11-27T08:22:21.261Z,99442.31
2017-11-27T08:24:47.780Z,99436.31
2017-11-27T08:27:14.132Z,99436.80
2017-11-27T08:29:40.662Z,99439.16
2017-11-27T08:32:07.102Z,99431.52
2017-11-27T08:34:33.462Z,99429.89
2017-11-27T08:36:59.826Z,99425.62
2017-11-27T08:39:26.336Z,99428.66
2017-11-27T08:41:52.733Z,99420.19
2017-11-27T08:44:19.126Z,99423.08
2017-11-27T08:46:45.567Z,99421.52
2017-11-27T08:49:11.988Z,99425.37
2017-11-27T08:51:38.609Z,99437.25
2017-11-27T08:54:05.237Z,99426.06
2017-11-27T08:56:31.831Z,99406.13
2017-11-27T08:58:58.362Z,99389.70
2017-11-27T09:01:24.954Z,99386.70
2017-11-27T09:03:51.479Z,99385.65
2017-11-27T09:06:17.874Z,99381.59
2017-11-27T09:08:44.299Z,99378.00
2017-11-27T09:11:10.780Z,99381.88
2017-11-27T09:13:37.190Z,99353.73
2017-11-27T09:16:03.654Z,99337.25
2017-11-27T09:18:30.026Z,99348.13
2017-11-27T09:20:56.602Z,99334.87
2017-11-27T09:23:23.160Z,99326.07
2017-11-27T09:25:49.551Z,99334.16
2017-11-27T09:28:16.195Z,99326.59
2017-11-27T09:30:42.914Z,99320.53
2017-11-27T09:33:09.369Z,99315.06
2017-11-27T09:35:35.886Z,99311.98
2017-11-27T09:38:02.342Z,99307.37
2017-11-27T09:40:28.827Z,99301.85
2017-11-27T09:42:55.451Z,99309.23
2017-11-27T09:45:22.057Z,99307.20
2017-11-27T09:47:48.724Z,99304.47
2017-11-27T09:50:15.205Z,99298.73
2017-11-27T09:52:41.658Z,99299.46
2017-11-27T10:01:09.079Z,99288.62
2017-11-27T10:03:35.642Z,99284.63
2017-11-27T10:06:02.214Z,99281.35
2017-11-27T10:08:28.645Z,99276.53
2017-11-27T10:10:55.093Z,99269.59
2017-11-27T10:13:21.635Z,99259.84
2017-11-27T10:15:48.076Z,99253.30
2017-11-27T10:18:14.757Z,99257.53
2017-11-27T10:20:41.166Z,99252.72
2017-11-27T10:23:07.593Z,99250.05
2017-11-27T10:25:34.020Z,99250.72
2017-11-27T10:28:00.614Z,99251.35
2017-11-27T10:30:27.045Z,99247.75
2017-11-27T10:32:53.461Z,99248.31
2017-11-27T10:35:19.966Z,99243.80
2017-11-27T10:37:46.469Z,99253.41
2017-11-27T10:40:12.893Z,99239.02
2017-11-27T10:42:39.287Z,99237.45
2017-11-27T10:45:05.698Z,99229.00
2017-11-27T10:47:32.171Z,99218.77
2017-11-27T10:49:58.585Z,99215.79
2017-11-27T10:52:25.009Z,99208.37
2017-11-27T10:54:51.418Z,99209.75
2017-11-27T10:57:17.798Z,99206.49
2017-11-27T10:59:44.225Z,99195.54
2017-11-27T11:02:10.640Z,99184.27
2017-11-27T11:04:37.268Z,99172.75
2017-11-27T11:07:04.231Z,99164.51
2017-11-27T11:09:31.619Z,99160.72
2017-11-27T11:11:59.198Z,99158.92
2017-11-27T11:14:27.368Z,99147.39
2017-11-27T11:16:54.574Z,99153.50
2017-11-27T11:19:21.609Z,99148.67
2017-11-27T11:21:48.463Z,99146.43
2017-11-27T11:24:15.724Z,99147.73
2017-11-27T11:26:42.266Z,99142.31
2017-11-27T11:29:08.793Z,99148.22
2017-11-27T11:31:35.186Z,99154.10
2017-11-27T11:34:01.587Z,99161.64
2017-11-27T11:36:28.418Z,99165.47
2017-11-27T11:38:54.898Z,99157.70
2017-11-27T11:41:21.276Z,99145.96
2017-11-27T11:43:47.780Z,99165.94
2017-11-27T11:46:14.190Z,99182.48
2017-11-27T11:48:40.558Z,99165.09
2017-11-27T11:51:06.990Z,99156.33
2017-11-27T11:53:33.389Z,99175.04
2017-11-27T11:55:59.826Z,99169.45
2017-11-27T11:58:26.365Z,99175.68
2017-11-27T12:00:52.783Z,99159.17
2017-11-27T12:03:19.166Z,99154.60
2017-11-27T12:05:45.687Z,99154.80
2017-11-27T12:08:12.093Z,99149.14
2017-11-27T12:10:38.486Z,99125.18
2017-11-27T12:13:04.899Z,99113.39
2017-11-27T12:15:31.310Z,99116.41
2017-11-27T12:17:57.724Z,99109.51
2017-11-27T12:20:24.176Z,99095.16
2017-11-27T12:22:50.593Z,99077.81
2017-11-27T12:25:17.007Z,99081.32
2017-11-27T12:27:43.402Z,99087.27
2017-11-27T12:30:09.912Z,99089.04
2017-11-27T12:32:36.398Z,99098.47
2017-11-27T12:35:02.816Z,99103.06
2017-11-27T12:37:29.233Z,99114.78
2017-11-27T12:39:55.714Z,99125.09
2017-11-27T12:42:22.602Z,99124.47
2017-11-27T12:44:49.898Z,99119.91
2017-11-27T12:47:16.816Z,99114.28
2017-11-27T12:49:43.811Z,99099.09
2017-11-27T12:52:10.561Z,99106.02
2017-11-27T12:54:38.144Z,99110.08
2017-11-27T12:57:05.225Z,99108.64
2017-11-27T12:59:32.199Z,99106.12
2017-11-27T13:01:58.716Z,99107.36
2017-11-27T13:04:25.189Z,99094.61
2017-11-27T13:06:51.561Z,99101.94
2017-11-27T13:09:17.949Z,99104.56
2017-11-27T13:11:44.393Z,99098.39
2017-11-27T13:14:10.832Z,99099.16
2017-11-27T13:16:37.203Z,99088.23
2017-11-27T13:19:03.655Z,99081.28
2017-11-27T13:21:30.158Z,99082.38
2017-11-27T13:23:56.543Z,99078.52
2017-11-27T13:26:22.978Z,99070.06
2017-11-27T13:28:49.360Z,99071.60
2017-11-27T13:31:15.715Z,99070.28
2017-11-27T13:33:42.115Z,99069.80
2017-11-27T13:36:08.530Z,99067.42
2017-11-27T13:38:35.095Z,99074.37
2017-11-27T13:41:01.540Z,99075.86
2017-11-27T13:43:28.007Z,99074.06
2017-11-27T13:45:54.416Z,99075.44
2017-11-27T13:48:20.874Z,99080.22
2017-11-27T13:50:47.280Z,99082.48
2017-11-27T13:53:13.687Z,99079.45
2017-11-27T13:55:40.173Z,99066.05
2017-11-27T13:58:06.606Z,99080.15
2017-11-27T14:00:34.143Z,99077.41
2017-11-27T14:03:00.626Z,99076.45
2017-11-27T14:05:27.000Z,99071.84
2017-11-27T14:07:53.371Z,99072.11
2017-11-27T14:10:19.925Z,99075.88
2017-11-27T14:12:46.273Z,99082.02
2017-11-27T14:15:12.615Z,99083.09
2017-11-27T14:17:39.059Z,99074.83
2017-11-27T14:20:05.450Z,99076.75
2017-11-27T14:22:32.099Z,99060.44
2017-11-27T14:24:59.640Z,99051.70
2017-11-27T14:27:26.494Z,99054.69
2017-11-27T14:29:56.306Z,99041.25
2017-11-27T14:32:25.155Z,99041.70
2017-11-27T14:34:53.389Z,99040.48
2017-11-27T14:37:20.110Z,99051.00
2017-11-27T14:40:27.398Z,99041.55
2017-11-27T14:42:53.898Z,99055.11
2017-11-27T14:45:20.374Z,99056.29
2017-11-27T14:47:47.181Z,99053.70
2017-11-27T14:50:13.613Z,99055.45
2017-11-27T14:52:40.115Z,99047.83
2017-11-27T14:55:06.765Z,99049.55
2017-11-27T14:57:33.351Z,99056.41
2017-11-27T15:00:00.115Z,99047.47
2017-11-27T15:02:26.666Z,99056.32
2017-11-27T15:04:53.264Z,99049.83
2017-11-27T15:07:19.954Z,99046.46
2017-11-27T15:09:46.413Z,99038.05
2017-11-27T15:12:13.233Z,99022.84
2017-11-27T15:14:39.682Z,99029.07
2017-11-27T15:17:06.166Z,99039.23
2017-11-27T15:19:32.641Z,99046.95
2017-11-27T15:21:59.096Z,99034.41
2017-11-27T15:24:25.758Z,99041.17
2017-11-27T15:26:52.222Z,99050.83
2017-11-27T15:29:18.825Z,99062.23
2017-11-27T15:31:45.324Z,99060.88
2017-11-27T15:34:11.901Z,99057.80
2017-11-27T15:36:39.318Z,99052.09
2017-11-27T15:39:05.910Z,99053.16
2017-11-27T15:41:32.478Z,99050.04
2017-11-27T15:43:58.977Z,99036.52
2017-11-27T15:46:25.465Z,99033.87
2017-11-27T15:48:51.966Z,99027.81
2017-11-27T15:51:18.775Z,99035.52
2017-11-27T15:53:45.395Z,99026.75
2017-11-27T15:56:11.947Z,99020.27
2017-11-27T15:58:38.533Z,99020.12
2017-11-27T16:01:05.494Z,99019.44
2017-11-27T16:03:32.077Z,99027.91
2017-11-27T16:05:58.555Z,99037.09
2017-11-27T16:08:25.035Z,99028.94
2017-11-27T16:10:51.502Z,99036.69
2017-11-27T16:13:17.986Z,99032.64
2017-11-27T16:15:44.490Z,99025.11
2017-11-27T16:18:10.949Z,99021.10
2017-11-27T16:20:37.430Z,99019.86
2017-11-27T16:23:04.207Z,99008.00
2017-11-27T16:25:30.729Z,99023.70
2017-11-27T16:27:57.194Z,99024.52
2017-11-27T16:30:23.688Z,99014.88
2017-11-27T16:32:50.162Z,99025.02
2017-11-27T16:35:16.724Z,99028.88
2017-11-27T16:37:43.230Z,99023.52
2017-11-27T16:40:09.669Z,99039.64
2017-11-27T16:42:36.154Z,99032.06
2017-11-27T16:45:02.640Z,99036.40
2017-11-27T16:47:29.118Z,99047.66
2017-11-27T16:49:55.810Z,99052.55
2017-11-27T16:52:22.375Z,99048.34
2017-11-27T16:54:49.073Z,99040.72
2017-11-27T16:57:15.524Z,99065.34
2017-11-27T16:59:42.906Z,99048.30
2017-11-27T17:02:09.354Z,99050.35
2017-11-27T17:04:35.847Z,99064.84
2017-11-27T17:07:02.333Z,99070.45
2017-11-27T17:09:29.221Z,99081.28
2017-11-27T17:11:55.667Z,99083.45
2017-11-27T17:14:22.167Z,99086.16
2017-11-27T17:16:48.670Z,99090.16
2017-11-27T17:19:17.999Z,99094.36
2017-11-27T17:21:44.599Z,99081.13
2017-11-27T17:24:11.090Z,99090.98
2017-11-27T17:26:37.533Z,99079.92
2017-11-27T17:29:04.028Z,99082.38
2017-11-27T17:31:30.482Z,99093.98
2017-11-27T17:33:56.934Z,99090.95
2017-11-27T17:36:23.480Z,99101.13
2017-11-27T17:38:50.032Z,99103.45
2017-11-27T17:41:16.508Z,99097.79
2017-11-27T17:43:43.015Z,99090.98
2017-11-27T17:46:09.467Z,99084.23
2017-11-27T17:48:35.903Z,99102.25
2017-11-27T17:51:02.464Z,99096.10
2017-11-27T17:53:28.969Z,99094.39
2017-11-27T17:55:55.640Z,99105.65
2017-11-27T17:58:22.644Z,99111.80
2017-11-27T18:00:49.058Z,99109.61
2017-11-27T18:03:15.552Z,99110.39
2017-11-27T18:05:42.031Z,99114.25
2017-11-27T18:08:09.261Z,99114.66
2017-11-27T18:10:37.374Z,99125.23
2017-11-27T18:13:03.908Z,99139.59
2017-11-27T18:15:31.343Z,99144.23
2017-11-27T18:18:00.800Z,99147.97
2017-11-27T18:20:28.268Z,99153.75
2017-11-27T18:22:55.127Z,99136.41
2017-11-27T18:25:21.989Z,99140.40
2017-11-27T18:27:48.505Z,99144.12
2017-11-27T18:30:16.764Z,99144.55
2017-11-27T18:32:43.274Z,99148.23
2017-11-27T18:35:09.787Z,99136.64
2017-11-27T18:37:36.515Z,99115.30
2017-11-27T18:40:03.037Z,99108.61
2017-11-27T18:42:29.689Z,99102.95
2017-11-27T18:44:56.248Z,99092.94
2017-11-27T18:47:22.888Z,99110.70
2017-11-27T18:49:52.387Z,99112.48
2017-11-27T18:52:23.870Z,99122.59
2017-11-27T18:54:50.335Z,99125.59
2017-11-27T18:57:16.847Z,99126.93
2017-11-27T18:59:43.356Z,99122.93
2017-11-27T19:02:10.635Z,99136.56
2017-11-27T19:04:37.167Z,99132.73
2017-11-27T19:07:03.623Z,99142.73
2017-11-27T19:09:30.077Z,99138.97
2017-11-27T19:11:58.683Z,99138.44
2017-11-27T19:14:25.212Z,99144.91
2017-11-27T19:16:52.495Z,99155.18
2017-11-27T19:19:19.358Z,99154.92
2017-11-27T19:21:45.914Z,99159.08
2017-11-27T19:24:12.480Z,99154.63
2017-11-27T19:26:39.839Z,99160.09
2017-11-27T19:29:06.354Z,99153.37
2017-11-27T19:31:33.611Z,99160.20
2017-11-27T19:34:00.251Z,99160.72
2017-11-27T19:36:26.764Z,99161.92
2017-11-27T19:38:53.251Z,99168.91
2017-11-27T19:41:19.787Z,99169.82
2017-11-27T19:43:46.300Z,99167.03
2017-11-27T19:46:14.567Z,99165.40
2017-11-27T19:48:41.270Z,99175.05
2017-11-27T19:51:07.789Z,99163.48
2017-11-27T19:53:35.488Z,99167.98
2017-11-27T19:56:02.348Z,99174.86
2017-11-27T19:58:29.168Z,99173.77
2017-11-27T20:00:56.427Z,99171.66
2017-11-27T20:03:22.916Z,99163.52
2017-11-27T20:05:49.398Z,99163.58
2017-11-27T20:08:16.755Z,99164.53
2017-11-27T20:10:43.273Z,99168.55
2017-11-27T20:13:09.792Z,99172.55
2017-11-27T20:15:36.321Z,99170.70
2017-11-27T20:18:03.766Z,99172.56
2017-11-27T20:20:30.242Z,99169.52
2017-11-27T20:22:56.698Z,99159.89
2017-11-27T20:25:23.210Z,99164.43
2017-11-27T20:27:49.833Z,99169.57
2017-11-27T20:30:16.295Z,99169.86
2017-11-27T20:32:42.791Z,99165.38
2017-11-27T20:35:09.274Z,99174.89
2017-11-27T20:37:35.883Z,99188.94
2017-11-27T20:40:02.553Z,99180.36
2017-11-27T20:42:29.005Z,99183.22
2017-11-27T20:44:55.490Z,99187.41
2017-11-27T20:47:21.977Z,99193.24
2017-11-27T20:49:48.440Z,99188.45
2017-11-27T20:52:14.898Z,99183.59
2017-11-27T20:54:41.514Z,99192.85
2017-11-27T20:57:08.301Z,99187.21
2017-11-27T20:59:34.841Z,99188.27
2017-11-27T21:02:01.325Z,99193.28
2017-11-27T21:04:27.738Z,99194.81
2017-11-27T21:06:54.166Z,99178.07
2017-11-27T21:09:20.626Z,99177.97
2017-11-27T21:11:47.022Z,99176.96
2017-11-27T21:14:13.544Z,99187.33
2017-11-27T21:16:39.975Z,99176.97
2017-11-27T21:19:06.447Z,99185.55
2017-11-27T21:21:32.918Z,99194.46
2017-11-27T21:23:59.382Z,99195.20
2017-11-27T21:26:25.807Z,99194.58
2017-11-27T21:28:52.236Z,99198.77
2017-11-27T21:31:18.709Z,99186.23
2017-11-27T21:33:45.134Z,99186.09
2017-11-27T21:36:11.522Z,99186.42
2017-11-27T21:38:37.975Z,99182.48
2017-11-27T21:41:04.455Z,99186.97
2017-11-27T21:43:30.863Z,99179.42
2017-11-27T21:45:57.360Z,99176.35
2017-11-27T21:48:23.788Z,99171.77
2017-11-27T21:50:50.243Z,99167.56
2017-11-27T21:53:16.717Z,99175.20
2017-11-27T21:55:43.147Z,99170.63
2017-11-27T21:58:09.582Z,99182.00
2017-11-27T22:00:36.054Z,99199.13
2017-11-27T22:03:02.437Z,99185.19
2017-11-27T22:05:28.893Z,99186.88
2017-11-27T22:07:55.483Z,99187.33
2017-11-27T22:10:21.971Z,99186.09
2017-11-27T22:12:48.456Z,99179.50
2017-11-27T22:15:14.902Z,99184.88
2017-11-27T22:17:41.341Z,99168.27
2017-11-27T22:20:07.774Z,99177.20
2017-11-27T22:22:34.245Z,99174.12
2017-11-27T22:25:00.823Z,99164.36
2017-11-27T22:27:27.255Z,99172.52
2017-11-27T22:29:53.721Z,99164.84
2017-11-27T22:32:20.247Z,99163.58
2017-11-27T22:34:46.629Z,99162.77
2017-11-27T22:37:13.118Z,99158.75
2017-11-27T22:39:39.600Z,99163.04
2017-11-27T22:42:06.163Z,99163.92
2017-11-27T22:44:32.644Z,99151.80
2017-11-27T22:46:59.074Z,99163.41
2017-11-27T22:49:25.509Z,99156.63
2017-11-27T22:51:52.022Z,99163.54
2017-11-27T22:54:18.461Z,99158.86
2017-11-27T22:56:44.963Z,99156.19
2017-11-27T22:59:11.431Z,99159.62
2017-11-27T23:01:37.833Z,99147.89
2017-11-27T23:04:04.271Z,99161.39
2017-11-27T23:06:30.705Z,99162.16
2017-11-27T23:08:57.185Z,99153.64
2017-11-27T23:11:23.590Z,99153.09
2017-11-27T23:13:50.102Z,99147.15
2017-11-27T23:16:16.842Z,99158.06
2017-11-27T23:18:43.329Z,99148.42
2017-11-27T23:21:09.869Z,99149.95
2017-11-27T23:23:36.321Z,99151.48
2017-11-27T23:26:02.741Z,99136.48
2017-11-27T23:28:29.250Z,99137.53
2017-11-27T23:30:55.687Z,99140.20
2017-11-27T23:33:22.129Z,99148.49
2017-11-27T23:35:48.593Z,99156.38
2017-11-27T23:38:15.027Z,99145.62
2017-11-27T23:40:41.434Z,99141.09
2017-11-27T23:43:07.918Z,99136.14
2017-11-27T23:45:34.350Z,99144.01
2017-11-27T23:48:00.825Z,99154.09
2017-11-27T23:50:27.307Z,99142.67
2017-11-27T23:52:53.831Z,99144.41
2017-11-27T23:55:20.317Z,99136.81
2017-11-27T23:57:46.754Z,99145.27
